McNeil Island, Washington
Current Conditions -  °F | °C
As of 7:59 PM on Wednesday 22 Oct 2014 (Local Time) from KTCM Reporting Station
Light Rain Light Rain  
Wind Chill: 57°   Ceiling: 8500
Heat Index: 57°   Visibility: 10mi
Dew Point: 52°   Wind: 14mph
Humidity: 82%   Direction: 170°S
Pressure: 29.59"   Gusts: NA
Location:  47.1696°N, 122.593°W
Report Text: KTCM 230259Z AUTO 17012KT 10SM -RA SCT050 SCT065 BKN085 14/11 A2959 RMK AO2 CIG 055 RWY34 $
Loading
Personal Weather Stations






























Interactive Weather Map
Tropical Storm Tracking
New forecast layout! Learn more

10-Day Weather Forecast

Advertisements
Track Severe Weather on mobile